Site contains unofficial IBTrACS data. Visit the IBTrACS Website to access archived data.

1896 NOT_NAMED (1896046S10062)


IBTrACS version v04r00. Visit IBTrACS website for data access.
Please direct all questions to the IBTrACS Q and A forum

Storm track - Intensity - Wind Radii - Intensity Data - Source Data - All data

Summary Information

Storm ID 1896046S10062
Start Feb 14 18Z
End Feb 23 06Z
ATCF IDs
Track status Best track data.

Storm track plot

Map of storm track

Intensity plots

No Intensity information for this storm


Radial wind information

No radial wind information for this storm


Position and Intensity Table

BASIN ISO_TIME_________ NATURE LAT LON
degrees north degrees east
SI 1896-02-14 18:00:00 NR -10.00 62.40
SI 21:00:00 NR -10.40 62.23
SI 1896-02-15 00:00:00 NR -10.78 62.07
SI 03:00:00 NR -11.12 61.92
SI 06:00:00 NR -11.40 61.80
SI 09:00:00 NR -11.61 61.70
SI 12:00:00 NR -11.76 61.63
SI 15:00:00 NR -11.88 61.56
SI 18:00:00 NR -12.00 61.50
SI 21:00:00 NR -12.15 61.42
SI 1896-02-16 00:00:00 NR -12.31 61.35
SI 03:00:00 NR -12.46 61.27
SI 06:00:00 NR -12.60 61.20
SI 09:00:00 NR -12.73 61.12
SI 12:00:00 NR -12.85 61.05
SI 15:00:00 NR -12.97 60.97
SI 18:00:00 NR -13.10 60.90
SI 21:00:00 NR -13.24 60.83
SI 1896-02-17 00:00:00 NR -13.39 60.76
SI 03:00:00 NR -13.55 60.69
SI 06:00:00 NR -13.70 60.60
SI 09:00:00 NR -13.85 60.48
SI 12:00:00 NR -14.01 60.35
SI 15:00:00 NR -14.16 60.22
SI 18:00:00 NR -14.30 60.10
SI 21:00:00 NR -14.43 60.01
SI 1896-02-18 00:00:00 NR -14.56 59.94
SI 03:00:00 NR -14.68 59.87
SI 06:00:00 NR -14.80 59.80
SI 09:00:00 NR -14.93 59.70
SI 12:00:00 NR -15.05 59.60
SI 15:00:00 NR -15.18 59.50
SI 18:00:00 NR -15.30 59.40
SI 21:00:00 NR -15.42 59.33
SI 1896-02-19 00:00:00 NR -15.54 59.26
SI 03:00:00 NR -15.67 59.19
SI 06:00:00 NR -15.80 59.10
SI 09:00:00 NR -15.94 58.96
SI 12:00:00 NR -16.09 58.81
SI 15:00:00 NR -16.25 58.65
SI 18:00:00 NR -16.40 58.50
SI 21:00:00 NR -16.55 58.39
SI 1896-02-20 00:00:00 NR -16.69 58.29
SI 03:00:00 NR -16.84 58.20
SI 06:00:00 NR -17.00 58.10
SI 09:00:00 NR -17.17 57.97
SI 12:00:00 NR -17.35 57.84
SI 15:00:00 NR -17.53 57.71
SI 18:00:00 NR -17.70 57.60
SI 21:00:00 NR -17.84 57.52
SI 1896-02-21 00:00:00 NR -17.98 57.46
SI 03:00:00 NR -18.13 57.42
SI 06:00:00 NR -18.30 57.40
SI 09:00:00 NR -18.54 57.37
SI 12:00:00 NR -18.80 57.36
SI 15:00:00 NR -19.06 57.37
SI 18:00:00 NR -19.30 57.40
SI 21:00:00 NR -19.47 57.45
SI 1896-02-22 00:00:00 NR -19.61 57.51
SI 03:00:00 NR -19.74 57.60
SI 06:00:00 NR -19.90 57.70
SI 09:00:00 NR -20.10 57.81
SI 12:00:00 NR -20.33 57.93
SI 15:00:00 NR -20.56 58.07
SI 18:00:00 NR -20.80 58.20
SI 21:00:00 NR -21.03 58.33
SI 1896-02-23 00:00:00 NR -21.26 58.45
SI 03:00:00 NR -21.48 58.58
SI 06:00:00 NR -21.70 58.70

Source Information

Agency Information
USA
TOKYO
CMA
HKO
NEWDELHI
REUNION
BOM
NADI
WELLINGTON
DS824
TD9636 cons_worldwide_trop_cyclone_18710101-19891231-005:Line=2345
TD9635
NEUMANN
MLC

All available IBTrACS Data

SEASON BASIN SUBBASIN ISO_TIME_________ NATURE LAT LON DIST2LAND LANDFALL IFLAG USA SSHS TD9636 LAT TD9636 LON TD9636 STAGE STORM SPEED STORM DIR
Year degrees north degrees east km km 1 degrees north degrees east kts degrees
1896 SI MM 1896-02-14 18:00:00 NR -10.00 62.40 1237 1188 __________O___ -1 -10.00 62.40 7 9 203
1896 SI MM 21:00:00 NR -10.40 62.23 1188 1142 __________P___ -1 -10.40 62.23 7 9 203
1896 SI MM 1896-02-15 00:00:00 NR -10.78 62.07 1142 1103 __________P___ -1 -10.78 62.07 7 8 203
1896 SI MM 03:00:00 NR -11.12 61.92 1103 1067 __________P___ -1 -11.12 61.92 7 7 203
1896 SI MM 06:00:00 NR -11.40 61.80 1067 1043 __________O___ -1 -11.40 61.80 7 5 204
1896 SI MM 09:00:00 NR -11.61 61.70 1043 1018 __________P___ -1 -11.61 61.70 7 4 205
1896 SI MM 12:00:00 NR -11.76 61.63 1018 1007 __________P___ -1 -11.76 61.63 7 3 206
1896 SI MM 15:00:00 NR -11.88 61.56 1007 993 __________P___ -1 -11.88 61.56 7 3 208
1896 SI MM 18:00:00 NR -12.00 61.50 993 978 __________O___ -1 -12.00 61.50 7 3 207
1896 SI MM 21:00:00 NR -12.15 61.42 968 958 __________P___ -1 -12.15 61.42 7 3 205
1896 SI MM 1896-02-16 00:00:00 NR -12.31 61.35 953 943 __________P___ -1 -12.31 61.35 7 3 206
1896 SI MM 03:00:00 NR -12.46 61.27 933 918 __________P___ -1 -12.46 61.27 7 3 207
1896 SI MM 06:00:00 NR -12.60 61.20 918 904 __________O___ -1 -12.60 61.20 7 3 209
1896 SI MM 09:00:00 NR -12.73 61.12 904 893 __________P___ -1 -12.73 61.12 7 3 211
1896 SI MM 12:00:00 NR -12.85 61.05 889 868 __________P___ -1 -12.85 61.05 7 3 211
1896 SI MM 15:00:00 NR -12.97 60.97 868 854 __________P___ -1 -12.97 60.97 7 3 211
1896 SI MM 18:00:00 NR -13.10 60.90 854 839 __________O___ -1 -13.10 60.90 7 3 207
1896 SI MM 21:00:00 NR -13.24 60.83 839 819 __________P___ -1 -13.24 60.83 7 3 205
1896 SI MM 1896-02-17 00:00:00 NR -13.39 60.76 819 804 __________P___ -1 -13.39 60.76 7 3 205
1896 SI MM 03:00:00 NR -13.55 60.69 804 779 __________P___ -1 -13.55 60.69 7 3 207
1896 SI MM 06:00:00 NR -13.70 60.60 779 765 __________O___ -1 -13.70 60.60 7 4 213
1896 SI MM 09:00:00 NR -13.85 60.48 754 740 __________P___ -1 -13.85 60.48 7 4 218
1896 SI MM 12:00:00 NR -14.01 60.35 740 722 __________P___ -1 -14.01 60.35 7 4 220
1896 SI MM 15:00:00 NR -14.16 60.22 711 697 __________P___ -1 -14.16 60.22 7 4 220
1896 SI MM 18:00:00 NR -14.30 60.10 697 682 __________O___ -1 -14.30 60.10 7 3 216
1896 SI MM 21:00:00 NR -14.43 60.01 682 658 __________P___ -1 -14.43 60.01 7 3 210
1896 SI MM 1896-02-18 00:00:00 NR -14.56 59.94 658 647 __________P___ -1 -14.56 59.94 7 3 209
1896 SI MM 03:00:00 NR -14.68 59.87 647 633 __________P___ -1 -14.68 59.87 7 3 210
1896 SI MM 06:00:00 NR -14.80 59.80 633 619 __________O___ -1 -14.80 59.80 7 3 214
1896 SI MM 09:00:00 NR -14.93 59.70 619 605 __________P___ -1 -14.93 59.70 7 3 218
1896 SI MM 12:00:00 NR -15.05 59.60 594 580 __________P___ -1 -15.05 59.60 7 3 218
1896 SI MM 15:00:00 NR -15.18 59.50 580 566 __________P___ -1 -15.18 59.50 7 3 218
1896 SI MM 18:00:00 NR -15.30 59.40 566 552 __________O___ -1 -15.30 59.40 7 3 214
1896 SI MM 21:00:00 NR -15.42 59.33 552 541 __________P___ -1 -15.42 59.33 7 3 209
1896 SI MM 1896-02-19 00:00:00 NR -15.54 59.26 541 517 __________P___ -1 -15.54 59.26 7 3 208
1896 SI MM 03:00:00 NR -15.67 59.19 517 503 __________P___ -1 -15.67 59.19 7 3 211
1896 SI MM 06:00:00 NR -15.80 59.10 503 489 __________O___ -1 -15.80 59.10 7 4 219
1896 SI MM 09:00:00 NR -15.94 58.96 489 462 __________P___ -1 -15.94 58.96 7 4 224
1896 SI MM 12:00:00 NR -16.09 58.81 462 448 __________P___ -1 -16.09 58.81 7 4 225
1896 SI MM 15:00:00 NR -16.25 58.65 446 422 __________P___ -1 -16.25 58.65 7 4 224
1896 SI MM 18:00:00 NR -16.40 58.50 422 409 __________O___ -1 -16.40 58.50 7 4 219
1896 SI MM 21:00:00 NR -16.55 58.39 409 385 __________P___ -1 -16.55 58.39 7 4 214
1896 SI MM 1896-02-20 00:00:00 NR -16.69 58.29 385 372 __________P___ -1 -16.69 58.29 7 4 211
1896 SI MM 03:00:00 NR -16.84 58.20 372 349 __________P___ -1 -16.84 58.20 7 4 211
1896 SI MM 06:00:00 NR -17.00 58.10 349 325 __________O___ -1 -17.00 58.10 7 4 214
1896 SI MM 09:00:00 NR -17.17 57.97 325 313 __________P___ -1 -17.17 57.97 7 4 216
1896 SI MM 12:00:00 NR -17.35 57.84 302 290 __________P___ -1 -17.35 57.84 7 4 215
1896 SI MM 15:00:00 NR -17.53 57.71 290 268 __________P___ -1 -17.53 57.71 7 4 213
1896 SI MM 18:00:00 NR -17.70 57.60 268 257 __________O___ -1 -17.70 57.60 7 4 209
1896 SI MM 21:00:00 NR -17.84 57.52 257 234 __________P___ -1 -17.84 57.52 7 3 205
1896 SI MM 1896-02-21 00:00:00 NR -17.98 57.46 234 223 __________P___ -1 -17.98 57.46 7 3 198
1896 SI MM 03:00:00 NR -18.13 57.42 223 201 __________P___ -1 -18.13 57.42 7 3 189
1896 SI MM 06:00:00 NR -18.30 57.40 201 179 __________O___ -1 -18.30 57.40 7 4 187
1896 SI MM 09:00:00 NR -18.54 57.37 179 145 __________P___ -1 -18.54 57.37 7 5 185
1896 SI MM 12:00:00 NR -18.80 57.36 145 123 __________P___ -1 -18.80 57.36 7 5 0
1896 SI MM 15:00:00 NR -19.06 57.37 112 90 __________P___ -1 -19.06 57.37 7 5 175
1896 SI MM 18:00:00 NR -19.30 57.40 90 67 __________O___ -1 -19.30 57.40 7 4 171
1896 SI MM 21:00:00 NR -19.47 57.45 67 55 __________P___ -1 -19.47 57.45 7 3 162
1896 SI MM 1896-02-22 00:00:00 NR -19.61 57.51 55 44 __________P___ -1 -19.61 57.51 7 3 153
1896 SI MM 03:00:00 NR -19.74 57.60 44 22 __________P___ -1 -19.74 57.60 7 3 149
1896 SI MM 06:00:00 NR -19.90 57.70 22 10 __________O___ -1 -19.90 57.70 7 4 151
1896 SI MM 09:00:00 NR -20.10 57.81 10 10 __________P___ -1 -20.10 57.81 7 5 153
1896 SI MM 12:00:00 NR -20.33 57.93 10 10 __________P___ -1 -20.33 57.93 7 5 152
1896 SI MM 15:00:00 NR -20.56 58.07 43 43 __________P___ -1 -20.56 58.07 7 5 152
1896 SI MM 18:00:00 NR -20.80 58.20 61 61 __________O___ -1 -20.80 58.20 7 5 153
1896 SI MM 21:00:00 NR -21.03 58.33 83 83 __________P___ -1 -21.03 58.33 7 5 152
1896 SI MM 1896-02-23 00:00:00 NR -21.26 58.45 122 122 __________P___ -1 -21.26 58.45 7 5 153
1896 SI MM 03:00:00 NR -21.48 58.58 145 145 __________P___ -1 -21.48 58.58 7 5 153
1896 SI MM 06:00:00 NR -21.70 58.70 169 __________O___ -1 -21.70 58.70 7 5 153